Time;durP1;ratioP1;P1;durP2;ratioP2;P2;SDS_P1;SDS_P2;PMS_P1;PMS_P2;Temp;Humidity;BMP_temperature;BMP_pressure;BME280_temperature;BME280_humidity;BME280_pressure;Samples;Min_cycle;Max_cycle;Signal;HPM_P1;HPM_P2
2022/02/04 00:04:34;;;;;;;6.62;3.62;;;;;;;;;;769331;179;918389;-64
2022/02/04 00:23:34;;;;;;;59.40;30.27;;;;;;;;;;770184;180;637613;-65
2022/02/04 00:26:15;;;;;;;23.77;11.17;;;;;;;;;;773997;178;627972;-65
2022/02/04 00:28:49;;;;;;;12.77;6.40;;;;;;;;;;776820;180;630472;-65
2022/02/04 00:31:41;;;;;;;11.57;5.70;;;;;;;;;;774954;180;632050;-65
2022/02/04 00:33:48;;;;;;;18.13;8.20;;;;;;;;;;775019;180;634242;-64
2022/02/04 00:36:18;;;;;;;22.87;10.57;;;;;;;;;;771751;177;919335;-64
2022/02/04 00:38:41;;;;;;;9.97;4.37;;;;;;;;;;770543;181;919858;-65
2022/02/04 00:41:08;;;;;;;6.90;4.10;;;;;;;;;;772904;178;1019665;-65
2022/02/04 00:43:30;;;;;;;20.43;11.93;;;;;;;;;;772757;179;919567;-64
2022/02/04 00:46:08;;;;;;;16.60;9.17;;;;;;;;;;778674;180;918589;-65
2022/02/04 00:48:48;;;;;;;11.20;6.53;;;;;;;;;;774112;181;924038;-64
2022/02/04 00:51:15;;;;;;;15.00;6.73;;;;;;;;;;772379;178;919035;-64
2022/02/04 00:54:46;;;;;;;19.90;6.45;;;;;;;;;;773786;178;919240;-64
2022/02/04 00:56:24;;;;;;;13.83;6.00;;;;;;;;;;774055;180;918859;-64
2022/02/04 01:26:46;;;;;;;7.13;3.80;;;;;;;;;;773527;180;919217;-65
2022/02/04 01:29:12;;;;;;;6.63;3.30;;;;;;;;;;780213;180;919921;-64
2022/02/04 01:31:37;;;;;;;7.67;3.73;;;;;;;;;;777412;178;919088;-66
2022/02/04 01:34:03;;;;;;;5.10;3.30;;;;;;;;;;772043;177;919467;-65
2022/02/04 01:36:29;;;;;;;4.47;2.80;;;;;;;;;;779751;180;823046;-66
2022/02/04 01:38:55;;;;;;;15.40;4.23;;;;;;;;;;772067;180;919560;-65
2022/02/04 01:41:21;;;;;;;9.10;4.00;;;;;;;;;;771728;181;919044;-65
2022/02/04 01:43:46;;;;;;;4.93;3.07;;;;;;;;;;773262;178;921208;-64
2022/02/04 01:46:12;;;;;;;6.40;3.07;;;;;;;;;;768978;180;918880;-66
2022/02/04 01:48:38;;;;;;;6.00;3.50;;;;;;;;;;760222;180;921578;-65
2022/02/04 01:51:04;;;;;;;7.03;3.20;;;;;;;;;;773980;178;921169;-64
2022/02/04 01:53:31;;;;;;;6.20;3.43;;;;;;;;;;766436;180;919877;-64
2022/02/04 01:55:56;;;;;;;7.60;3.28;;;;;;;;;;765896;180;916968;-63
2022/02/04 01:58:22;;;;;;;7.90;3.30;;;;;;;;;;764699;178;916931;-65
2022/02/04 02:00:47;;;;;;;5.40;3.20;;;;;;;;;;778908;177;928881;-65
2022/02/04 02:03:13;;;;;;;6.67;3.17;;;;;;;;;;773564;178;919395;-65
2022/02/04 02:05:39;;;;;;;8.83;4.40;;;;;;;;;;766131;180;918494;-64
2022/02/04 02:08:05;;;;;;;6.40;4.10;;;;;;;;;;776111;177;919474;-65
2022/02/04 02:10:31;;;;;;;4.70;3.47;;;;;;;;;;769925;177;919456;-65
2022/02/04 02:15:53;;;;;;;8.03;3.07;;;;;;;;;;776325;178;919242;-65
2022/02/04 02:34:20;;;;;;;7.10;3.20;;;;;;;;;;778876;180;919413;-66
2022/02/04 02:36:36;;;;;;;9.43;3.40;;;;;;;;;;778656;181;919311;-63
2022/02/04 02:42:02;;;;;;;7.00;3.73;;;;;;;;;;771676;180;919329;-63
2022/02/04 02:49:21;;;;;;;12.40;3.90;;;;;;;;;;770437;179;918972;-63
2022/02/04 02:51:45;;;;;;;11.17;4.20;;;;;;;;;;752343;185;918629;-63
2022/02/04 02:54:13;;;;;;;8.10;4.20;;;;;;;;;;772466;180;919988;-63
2022/02/04 02:57:02;;;;;;;8.53;3.30;;;;;;;;;;765104;180;919611;-62
2022/02/04 02:59:05;;;;;;;10.03;3.70;;;;;;;;;;768619;180;919459;-62
2022/02/04 03:01:27;;;;;;;6.10;3.27;;;;;;;;;;767594;180;919070;-63
2022/02/04 03:03:55;;;;;;;6.87;3.60;;;;;;;;;;778424;180;925046;-63
2022/02/04 03:06:17;;;;;;;10.17;4.00;;;;;;;;;;774043;177;919434;-62
2022/02/04 03:08:43;;;;;;;12.82;5.55;;;;;;;;;;774407;181;919637;-63
2022/02/04 03:11:08;;;;;;;6.67;3.87;;;;;;;;;;777806;180;920016;-63
2022/02/04 03:13:35;;;;;;;5.05;3.35;;;;;;;;;;773758;180;919395;-63
2022/02/04 03:16:03;;;;;;;7.80;3.80;;;;;;;;;;772619;180;1021591;-63
2022/02/04 03:18:29;;;;;;;12.10;3.90;;;;;;;;;;768442;179;919460;-62
2022/02/04 03:20:56;;;;;;;6.30;3.90;;;;;;;;;;772402;181;918902;-62
2022/02/04 03:23:19;;;;;;;6.93;4.07;;;;;;;;;;773309;179;920377;-62
2022/02/04 03:25:49;;;;;;;10.10;4.20;;;;;;;;;;765241;181;919704;-62
2022/02/04 03:28:15;;;;;;;6.43;3.73;;;;;;;;;;779427;181;918821;-62
2022/02/04 03:30:37;;;;;;;8.07;3.57;;;;;;;;;;766776;181;918987;-62
2022/02/04 03:33:04;;;;;;;6.25;3.62;;;;;;;;;;770779;181;919274;-62
2022/02/04 03:35:27;;;;;;;6.53;4.20;;;;;;;;;;778569;180;919665;-61
2022/02/04 03:37:53;;;;;;;7.67;3.90;;;;;;;;;;774100;179;919199;-62
2022/02/04 03:40:19;;;;;;;10.55;4.28;;;;;;;;;;773434;179;919303;-62
2022/02/04 03:42:44;;;;;;;12.73;3.90;;;;;;;;;;772070;180;917224;-61
2022/02/04 03:45:10;;;;;;;7.57;4.30;;;;;;;;;;771374;177;917788;-62
2022/02/04 03:47:36;;;;;;;9.10;4.90;;;;;;;;;;775164;180;919284;-61
2022/02/04 03:50:02;;;;;;;12.67;5.40;;;;;;;;;;765093;180;916261;-61
2022/02/04 03:52:28;;;;;;;9.77;5.23;;;;;;;;;;779087;179;1017572;-61
2022/02/04 03:54:54;;;;;;;22.93;6.83;;;;;;;;;;774038;179;916978;-62
2022/02/04 03:57:20;;;;;;;9.70;6.20;;;;;;;;;;774360;177;919157;-61
2022/02/04 03:59:46;;;;;;;14.43;8.03;;;;;;;;;;780679;180;918893;-60
2022/02/04 04:02:13;;;;;;;14.67;7.90;;;;;;;;;;774968;181;918405;-60
2022/02/04 04:04:37;;;;;;;13.57;8.10;;;;;;;;;;772191;178;919400;-61
2022/02/04 04:07:03;;;;;;;14.97;7.47;;;;;;;;;;778382;180;919409;-61
2022/02/04 04:09:29;;;;;;;12.90;6.50;;;;;;;;;;775262;178;919456;-61
2022/02/04 04:11:55;;;;;;;16.13;8.90;;;;;;;;;;774999;177;919113;-61
2022/02/04 04:14:21;;;;;;;11.63;6.93;;;;;;;;;;773685;179;919905;-61
2022/02/04 04:16:47;;;;;;;11.17;7.23;;;;;;;;;;772894;180;919499;-61
2022/02/04 04:19:13;;;;;;;17.07;7.77;;;;;;;;;;775793;177;924795;-61
2022/02/04 04:21:38;;;;;;;11.53;7.13;;;;;;;;;;774328;180;919678;-61
2022/02/04 04:24:05;;;;;;;19.80;8.43;;;;;;;;;;774411;180;918658;-62
2022/02/04 04:26:30;;;;;;;17.10;8.57;;;;;;;;;;770885;180;918891;-61
2022/02/04 04:28:56;;;;;;;18.85;7.78;;;;;;;;;;772539;179;919441;-60
2022/02/04 04:31:22;;;;;;;17.50;8.83;;;;;;;;;;779591;179;919359;-61
2022/02/04 04:33:49;;;;;;;8.80;6.00;;;;;;;;;;775586;177;919291;-61
2022/02/04 04:36:14;;;;;;;15.00;5.63;;;;;;;;;;773923;180;920221;-61
2022/02/04 04:38:52;;;;;;;14.87;7.77;;;;;;;;;;768358;180;920005;-62
2022/02/04 04:44:13;;;;;;;13.23;6.97;;;;;;;;;;775276;177;919927;-62
2022/02/04 05:29:33;;;;;;;26.57;13.10;;;;;;;;;;764535;179;918415;-62
2022/02/04 05:31:59;;;;;;;30.43;13.53;;;;;;;;;;771361;179;924577;-63
2022/02/04 05:34:25;;;;;;;26.30;12.17;;;;;;;;;;778617;178;918582;-64
2022/02/04 05:37:00;;;;;;;30.77;14.60;;;;;;;;;;771832;178;918538;-64
2022/02/04 05:39:24;;;;;;;33.20;16.00;;;;;;;;;;770171;179;919190;-63
2022/02/04 05:41:47;;;;;;;24.90;12.13;;;;;;;;;;770105;181;918244;-64
2022/02/04 05:44:12;;;;;;;29.30;12.83;;;;;;;;;;772761;181;919375;-63
2022/02/04 05:46:45;;;;;;;33.05;14.30;;;;;;;;;;767574;180;919677;-63
2022/02/04 05:49:02;;;;;;;33.80;13.13;;;;;;;;;;760739;180;930636;-64
2022/02/04 05:52:07;;;;;;;34.37;14.83;;;;;;;;;;777277;180;918354;-64
2022/02/04 05:54:17;;;;;;;24.80;12.00;;;;;;;;;;778787;180;918950;-64
2022/02/04 05:56:51;;;;;;;25.83;13.37;;;;;;;;;;771325;179;920171;-63
2022/02/04 05:59:16;;;;;;;28.07;12.90;;;;;;;;;;770478;180;919641;-64
2022/02/04 06:01:43;;;;;;;25.73;13.57;;;;;;;;;;775943;181;918817;-64
2022/02/04 06:04:41;;;;;;;20.70;11.80;;;;;;;;;;773308;179;921142;-64
2022/02/04 06:07:00;;;;;;;23.03;12.93;;;;;;;;;;767990;178;919081;-64
2022/02/04 06:09:37;;;;;;;23.13;11.83;;;;;;;;;;764137;180;919288;-62
2022/02/04 06:13:06;;;;;;;22.40;12.60;;;;;;;;;;759678;183;915245;-63
2022/02/04 06:14:31;;;;;;;25.83;13.37;;;;;;;;;;770322;180;918986;-63
2022/02/04 06:24:21;;;;;;;23.47;11.80;;;;;;;;;;771255;178;918535;-64
2022/02/04 06:26:51;;;;;;;23.47;11.40;;;;;;;;;;776585;180;919919;-65
2022/02/04 06:29:13;;;;;;;20.60;10.93;;;;;;;;;;756044;182;918785;-64
2022/02/04 06:31:39;;;;;;;19.70;10.63;;;;;;;;;;768538;180;922899;-64
2022/02/04 06:34:05;;;;;;;23.50;10.40;;;;;;;;;;773675;180;918486;-64
2022/02/04 06:36:31;;;;;;;21.77;10.13;;;;;;;;;;777272;178;919569;-64
2022/02/04 06:38:57;;;;;;;22.20;10.47;;;;;;;;;;773704;179;928285;-65
2022/02/04 06:41:22;;;;;;;24.50;9.50;;;;;;;;;;771520;180;919027;-64
2022/02/04 06:43:48;;;;;;;18.90;10.63;;;;;;;;;;776160;181;918231;-64
2022/02/04 06:46:14;;;;;;;16.10;10.60;;;;;;;;;;767338;180;919795;-64
2022/02/04 06:48:40;;;;;;;18.37;9.90;;;;;;;;;;774828;180;925573;-65
2022/02/04 06:51:06;;;;;;;21.00;10.80;;;;;;;;;;779160;180;919301;-64
2022/02/04 06:53:32;;;;;;;18.07;9.33;;;;;;;;;;763276;180;919452;-63
2022/02/04 06:55:57;;;;;;;18.80;10.73;;;;;;;;;;774272;180;919847;-64
2022/02/04 06:58:23;;;;;;;17.63;10.60;;;;;;;;;;774604;180;953832;-64
2022/02/04 07:00:49;;;;;;;18.55;10.30;;;;;;;;;;771638;181;918109;-64
2022/02/04 07:03:15;;;;;;;19.77;11.00;;;;;;;;;;772809;180;920066;-64
2022/02/04 07:05:53;;;;;;;20.47;11.57;;;;;;;;;;776623;176;919478;-63
2022/02/04 07:08:16;;;;;;;18.77;10.43;;;;;;;;;;776231;177;919425;-64
2022/02/04 07:10:53;;;;;;;20.00;11.00;;;;;;;;;;765909;178;916574;-64
2022/02/04 07:13:23;;;;;;;15.90;8.97;;;;;;;;;;773523;178;1020877;-64
2022/02/04 07:15:54;;;;;;;15.33;8.80;;;;;;;;;;773131;180;918921;-65
2022/02/04 07:20:50;;;;;;;17.77;8.43;;;;;;;;;;778943;180;919845;-64
2022/02/04 07:23:16;;;;;;;14.90;7.90;;;;;;;;;;773037;178;919614;-63
2022/02/04 07:25:41;;;;;;;14.35;8.30;;;;;;;;;;772666;180;922344;-63
2022/02/04 07:28:08;;;;;;;11.35;6.80;;;;;;;;;;773492;177;920216;-62
2022/02/04 07:30:34;;;;;;;13.50;7.30;;;;;;;;;;770966;182;919388;-63
2022/02/04 07:33:11;;;;;;;9.73;6.30;;;;;;;;;;770799;181;920435;-63
2022/02/04 07:43:00;;;;;;;9.53;6.40;;;;;;;;;;772685;177;918950;-62
2022/02/04 07:45:26;;;;;;;11.23;6.37;;;;;;;;;;772519;179;919610;-62
2022/02/04 07:47:52;;;;;;;8.63;5.43;;;;;;;;;;777698;180;924954;-63
2022/02/04 07:50:21;;;;;;;13.50;5.93;;;;;;;;;;772841;180;918876;-63
2022/02/04 07:52:44;;;;;;;13.13;6.57;;;;;;;;;;771836;180;1021529;-64
2022/02/04 07:55:10;;;;;;;9.67;5.33;;;;;;;;;;777238;180;919555;-63
2022/02/04 07:57:36;;;;;;;10.87;6.50;;;;;;;;;;772759;180;931325;-63
2022/02/04 08:00:03;;;;;;;10.50;6.17;;;;;;;;;;772922;179;919557;-63
2022/02/04 08:02:28;;;;;;;10.45;5.47;;;;;;;;;;771224;180;919908;-64
2022/02/04 08:04:58;;;;;;;8.60;5.00;;;;;;;;;;774141;180;919241;-62
2022/02/04 08:07:19;;;;;;;13.23;6.90;;;;;;;;;;762567;181;1020578;-62
2022/02/04 08:10:09;;;;;;;15.80;6.40;;;;;;;;;;772567;180;919683;-63
2022/02/04 08:13:21;;;;;;;22.63;8.00;;;;;;;;;;772019;180;919651;-63
2022/02/04 08:15:18;;;;;;;12.57;6.70;;;;;;;;;;770619;180;1020743;-61
2022/02/04 08:18:03;;;;;;;14.43;6.97;;;;;;;;;;778918;180;919389;-62
2022/02/04 08:21:07;;;;;;;19.80;8.77;;;;;;;;;;767375;180;919853;-62
2022/02/04 08:23:03;;;;;;;17.70;6.63;;;;;;;;;;766142;181;920185;-60
2022/02/04 08:28:29;;;;;;;15.20;9.57;;;;;;;;;;774916;179;918937;-61
2022/02/04 08:30:56;;;;;;;12.27;6.20;;;;;;;;;;763333;181;920524;-62
2022/02/04 08:48:52;;;;;;;15.93;7.90;;;;;;;;;;779206;180;916606;-62
2022/02/04 08:51:06;;;;;;;16.13;8.97;;;;;;;;;;773391;180;919168;-61
2022/02/04 08:56:03;;;;;;;32.80;13.27;;;;;;;;;;752292;184;1019431;-61
2022/02/04 08:58:36;;;;;;;28.27;12.10;;;;;;;;;;773650;179;919434;-61
2022/02/04 09:01:04;;;;;;;15.13;7.63;;;;;;;;;;777198;178;918904;-60
2022/02/04 09:03:29;;;;;;;12.50;5.90;;;;;;;;;;767062;181;918974;-62
2022/02/04 09:06:05;;;;;;;6.50;4.43;;;;;;;;;;770986;179;919728;-62
2022/02/04 09:08:26;;;;;;;12.23;6.03;;;;;;;;;;773179;180;919335;-61
2022/02/04 09:10:48;;;;;;;11.13;6.43;;;;;;;;;;772466;178;919174;-63
2022/02/04 09:23:19;;;;;;;15.70;7.50;;;;;;;;;;774777;181;919499;-63
2022/02/04 09:25:45;;;;;;;15.87;7.10;;;;;;;;;;774159;180;919673;-62
2022/02/04 09:28:11;;;;;;;13.30;6.80;;;;;;;;;;775961;180;919543;-62
2022/02/04 09:30:37;;;;;;;12.83;6.90;;;;;;;;;;781355;180;918656;-63
2022/02/04 09:33:03;;;;;;;12.20;6.37;;;;;;;;;;773310;178;918913;-63
2022/02/04 09:35:29;;;;;;;12.90;6.03;;;;;;;;;;767955;181;918647;-63
2022/02/04 09:37:54;;;;;;;13.00;5.80;;;;;;;;;;778717;180;919183;-64
2022/02/04 09:40:20;;;;;;;14.27;6.63;;;;;;;;;;760824;181;1024633;-66
2022/02/04 09:42:46;;;;;;;12.97;6.93;;;;;;;;;;759507;180;918892;-64
2022/02/04 09:45:12;;;;;;;16.55;5.90;;;;;;;;;;774382;178;919437;-63
2022/02/04 09:47:40;;;;;;;16.30;7.23;;;;;;;;;;773635;180;919607;-64
2022/02/04 09:50:04;;;;;;;10.37;6.37;;;;;;;;;;771732;178;919452;-63
2022/02/04 10:08:16;;;;;;;13.43;6.53;;;;;;;;;;770577;180;919138;-64
2022/02/04 10:10:48;;;;;;;14.97;8.07;;;;;;;;;;772046;181;919425;-65
2022/02/04 10:20:49;;;;;;;19.97;7.17;;;;;;;;;;773824;180;918468;-65
2022/02/04 10:23:15;;;;;;;14.35;6.85;;;;;;;;;;769489;178;919729;-65
2022/02/04 10:25:41;;;;;;;15.20;7.67;;;;;;;;;;765349;181;918448;-65
2022/02/04 10:28:07;;;;;;;13.67;7.00;;;;;;;;;;763579;180;920658;-66
2022/02/04 10:30:32;;;;;;;13.20;6.37;;;;;;;;;;774934;178;919452;-65
2022/02/04 10:32:59;;;;;;;21.93;8.20;;;;;;;;;;763166;181;918867;-65
2022/02/04 10:35:28;;;;;;;12.65;6.78;;;;;;;;;;764294;182;918156;-63
2022/02/04 10:37:59;;;;;;;13.57;6.93;;;;;;;;;;766123;178;919503;-65
2022/02/04 10:40:28;;;;;;;11.63;7.03;;;;;;;;;;773154;179;919219;-64
2022/02/04 10:43:06;;;;;;;11.60;7.47;;;;;;;;;;776289;180;920117;-65
2022/02/04 10:48:27;;;;;;;15.47;7.80;;;;;;;;;;767812;180;918728;-64
2022/02/04 10:51:03;;;;;;;12.27;7.00;;;;;;;;;;767430;180;919352;-64
2022/02/04 10:56:18;;;;;;;19.07;7.40;;;;;;;;;;767558;180;1021545;-64
2022/02/04 10:58:43;;;;;;;8.13;5.50;;;;;;;;;;764449;180;920130;-64
2022/02/04 11:01:08;;;;;;;10.87;7.40;;;;;;;;;;774670;181;920825;-64
2022/02/04 11:03:19;;;;;;;12.87;7.40;;;;;;;;;;770385;180;919156;-63
2022/02/04 11:05:56;;;;;;;9.87;5.93;;;;;;;;;;771924;177;919105;-64
2022/02/04 11:08:50;;;;;;;13.50;7.03;;;;;;;;;;771107;180;929786;-64
2022/02/04 11:11:12;;;;;;;15.38;7.30;;;;;;;;;;771002;178;918998;-65
2022/02/04 11:31:14;;;;;;;18.93;9.00;;;;;;;;;;765211;178;714721;-65
2022/02/04 11:36:35;;;;;;;18.33;9.07;;;;;;;;;;777020;181;637003;-65
2022/02/04 11:52:39;;;;;;;27.67;9.90;;;;;;;;;;771224;180;919477;-64
2022/02/04 11:55:00;;;;;;;17.73;9.93;;;;;;;;;;762366;180;919314;-63
2022/02/04 11:57:29;;;;;;;22.53;11.17;;;;;;;;;;775358;177;918861;-64
2022/02/04 11:59:55;;;;;;;18.10;9.20;;;;;;;;;;775686;177;919760;-66
2022/02/04 12:02:33;;;;;;;15.77;8.90;;;;;;;;;;766611;180;919959;-63
2022/02/04 12:05:04;;;;;;;14.03;8.87;;;;;;;;;;774865;177;919414;-63
2022/02/04 12:07:33;;;;;;;19.20;9.63;;;;;;;;;;780834;178;918458;-63
2022/02/04 12:09:59;;;;;;;23.43;11.37;;;;;;;;;;772824;180;1026402;-64
2022/02/04 12:12:30;;;;;;;16.63;9.37;;;;;;;;;;761357;182;920640;-64
2022/02/04 12:14:56;;;;;;;19.90;10.13;;;;;;;;;;770850;181;918186;-64
2022/02/04 12:17:22;;;;;;;18.63;9.97;;;;;;;;;;776354;178;920949;-64
2022/02/04 12:19:52;;;;;;;16.97;9.60;;;;;;;;;;759587;181;919883;-64
2022/02/04 12:22:16;;;;;;;16.43;9.30;;;;;;;;;;763395;180;922881;-64
2022/02/04 12:24:40;;;;;;;20.40;9.83;;;;;;;;;;777065;178;919192;-64
2022/02/04 12:27:12;;;;;;;14.40;7.97;;;;;;;;;;766832;177;915843;-64
2022/02/04 12:29:38;;;;;;;14.33;9.50;;;;;;;;;;764499;181;915112;-64
2022/02/04 12:32:05;;;;;;;15.60;8.67;;;;;;;;;;772622;177;919364;-63
2022/02/04 12:34:34;;;;;;;13.37;8.33;;;;;;;;;;778372;180;921722;-63
2022/02/04 12:36:58;;;;;;;11.40;7.20;;;;;;;;;;773298;181;919500;-63
2022/02/04 12:39:25;;;;;;;15.53;8.20;;;;;;;;;;774256;178;918928;-63
2022/02/04 12:41:52;;;;;;;13.50;8.37;;;;;;;;;;775443;181;918797;-63
2022/02/04 12:44:17;;;;;;;14.03;8.97;;;;;;;;;;765808;180;919001;-63
2022/02/04 12:46:44;;;;;;;14.77;8.60;;;;;;;;;;771828;180;918157;-63
2022/02/04 12:49:09;;;;;;;14.73;8.47;;;;;;;;;;761536;178;919337;-63
2022/02/04 12:51:56;;;;;;;11.80;7.77;;;;;;;;;;778388;179;918439;-63
2022/02/04 12:54:29;;;;;;;14.47;8.07;;;;;;;;;;778793;180;918728;-63
2022/02/04 12:57:26;;;;;;;10.90;7.40;;;;;;;;;;775850;179;920578;-63
2022/02/04 13:09:51;;;;;;;18.30;9.33;;;;;;;;;;781486;180;918924;-62
2022/02/04 13:12:18;;;;;;;14.03;8.67;;;;;;;;;;780439;180;918842;-62
2022/02/04 13:14:43;;;;;;;17.57;8.33;;;;;;;;;;772408;180;919683;-63
2022/02/04 13:17:09;;;;;;;12.93;8.77;;;;;;;;;;772811;178;919431;-63
2022/02/04 13:19:35;;;;;;;17.30;9.70;;;;;;;;;;770055;180;918992;-62
2022/02/04 13:22:00;;;;;;;15.80;9.13;;;;;;;;;;763857;180;919970;-63
2022/02/04 13:24:26;;;;;;;16.07;8.50;;;;;;;;;;772476;177;918505;-63
2022/02/04 13:26:52;;;;;;;19.50;8.90;;;;;;;;;;777635;180;918965;-64
2022/02/04 13:29:18;;;;;;;11.60;7.60;;;;;;;;;;776361;179;918172;-62
2022/02/04 13:31:44;;;;;;;12.90;8.63;;;;;;;;;;760561;180;918495;-63
2022/02/04 13:34:10;;;;;;;12.57;7.80;;;;;;;;;;774649;179;918134;-62
2022/02/04 13:36:42;;;;;;;20.10;8.57;;;;;;;;;;760176;181;917999;-63
2022/02/04 13:39:19;;;;;;;16.03;6.70;;;;;;;;;;770612;177;921362;-62
2022/02/04 13:41:50;;;;;;;15.83;8.20;;;;;;;;;;770598;177;918297;-63
2022/02/04 13:44:24;;;;;;;18.10;8.00;;;;;;;;;;770264;180;918249;-62
2022/02/04 13:46:52;;;;;;;13.37;7.50;;;;;;;;;;779693;178;915855;-62
2022/02/04 13:49:29;;;;;;;17.73;8.60;;;;;;;;;;771993;177;916162;-63
2022/02/04 13:52:03;;;;;;;17.13;9.27;;;;;;;;;;768169;181;947927;-62
2022/02/04 13:54:36;;;;;;;13.97;8.53;;;;;;;;;;766534;181;1021110;-63
2022/02/04 13:57:15;;;;;;;16.43;8.20;;;;;;;;;;768221;180;918343;-62
2022/02/04 13:59:42;;;;;;;13.83;7.80;;;;;;;;;;768708;177;920264;-62
2022/02/04 14:02:05;;;;;;;14.60;8.03;;;;;;;;;;761052;181;919091;-63
2022/02/04 14:04:30;;;;;;;17.60;9.20;;;;;;;;;;775203;178;918389;-62
2022/02/04 14:07:02;;;;;;;18.90;8.67;;;;;;;;;;764454;182;918727;-63
2022/02/04 14:09:29;;;;;;;13.23;8.83;;;;;;;;;;773756;180;922971;-63
2022/02/04 14:11:54;;;;;;;12.70;8.10;;;;;;;;;;779486;177;919050;-63
2022/02/04 14:14:21;;;;;;;11.70;8.80;;;;;;;;;;773923;180;919119;-62
2022/02/04 14:16:55;;;;;;;20.73;9.00;;;;;;;;;;775980;180;917765;-62
2022/02/04 14:19:20;;;;;;;18.77;9.17;;;;;;;;;;768003;180;919095;-63
2022/02/04 14:21:46;;;;;;;15.20;9.15;;;;;;;;;;775388;180;846629;-62
2022/02/04 14:24:13;;;;;;;13.10;8.50;;;;;;;;;;772433;180;920004;-62
2022/02/04 14:26:43;;;;;;;13.73;7.50;;;;;;;;;;771904;177;918361;-63
2022/02/04 14:29:13;;;;;;;12.93;9.77;;;;;;;;;;776918;180;919505;-63
2022/02/04 14:31:44;;;;;;;19.70;8.63;;;;;;;;;;767704;180;918354;-63
2022/02/04 14:34:41;;;;;;;17.30;9.33;;;;;;;;;;771149;180;633577;-64
2022/02/04 14:52:03;;;;;;;16.43;8.13;;;;;;;;;;778006;180;919445;-63
2022/02/04 15:02:11;;;;;;;14.00;8.67;;;;;;;;;;770323;178;918533;-63
2022/02/04 15:04:42;;;;;;;14.20;8.63;;;;;;;;;;770744;180;919977;-63
2022/02/04 15:07:04;;;;;;;17.13;10.10;;;;;;;;;;769531;180;918926;-63
2022/02/04 15:09:30;;;;;;;14.57;8.23;;;;;;;;;;769392;180;917826;-65
2022/02/04 15:11:54;;;;;;;17.80;8.17;;;;;;;;;;771679;180;905544;-63
2022/02/04 15:14:20;;;;;;;16.07;9.20;;;;;;;;;;766777;180;919360;-63
2022/02/04 15:16:46;;;;;;;16.17;9.00;;;;;;;;;;779251;179;919334;-64
2022/02/04 15:19:12;;;;;;;14.03;9.43;;;;;;;;;;765044;180;918433;-63
2022/02/04 15:21:40;;;;;;;14.50;8.23;;;;;;;;;;766919;177;917516;-63
2022/02/04 15:24:04;;;;;;;17.97;8.97;;;;;;;;;;769071;181;919427;-64
2022/02/04 15:26:30;;;;;;;16.43;10.03;;;;;;;;;;774766;179;1024464;-63
2022/02/04 15:29:02;;;;;;;17.00;11.27;;;;;;;;;;772489;177;917466;-63
2022/02/04 15:34:07;;;;;;;17.23;11.40;;;;;;;;;;771972;180;924141;-63
2022/02/04 15:36:38;;;;;;;21.50;11.70;;;;;;;;;;774470;178;916398;-63
2022/02/04 15:38:59;;;;;;;17.80;11.30;;;;;;;;;;773324;178;914595;-64
2022/02/04 15:41:26;;;;;;;13.67;9.10;;;;;;;;;;772749;178;919146;-64
2022/02/04 15:43:54;;;;;;;19.77;10.50;;;;;;;;;;778153;180;919291;-63
2022/02/04 15:46:39;;;;;;;16.30;9.93;;;;;;;;;;769906;181;918758;-63
2022/02/04 15:51:35;;;;;;;23.93;11.70;;;;;;;;;;757410;180;920114;-64
2022/02/04 15:54:18;;;;;;;20.27;10.27;;;;;;;;;;773787;180;919137;-64
2022/02/04 15:56:51;;;;;;;16.40;10.20;;;;;;;;;;775028;181;919510;-63
2022/02/04 16:01:55;;;;;;;17.37;11.40;;;;;;;;;;769758;180;918916;-63
2022/02/04 16:06:43;;;;;;;23.60;13.10;;;;;;;;;;770734;180;919751;-63
2022/02/04 16:09:07;;;;;;;16.93;10.97;;;;;;;;;;776542;180;919296;-63
2022/02/04 16:11:50;;;;;;;19.83;12.43;;;;;;;;;;771789;180;918720;-64
2022/02/04 16:14:09;;;;;;;22.37;12.93;;;;;;;;;;769724;180;919087;-64
2022/02/04 16:16:31;;;;;;;21.27;12.10;;;;;;;;;;769859;180;919041;-64
2022/02/04 16:19:24;;;;;;;18.40;11.60;;;;;;;;;;769276;182;918223;-63
2022/02/04 16:21:45;;;;;;;19.30;11.63;;;;;;;;;;770796;180;920270;-64
2022/02/04 16:24:33;;;;;;;16.23;11.63;;;;;;;;;;766384;178;915476;-64
2022/02/04 16:29:10;;;;;;;20.60;11.53;;;;;;;;;;772450;180;919687;-64
2022/02/04 16:31:36;;;;;;;19.13;11.93;;;;;;;;;;780379;177;918999;-63
2022/02/04 16:34:09;;;;;;;19.73;9.83;;;;;;;;;;767284;180;1021451;-62
2022/02/04 16:36:32;;;;;;;16.60;11.23;;;;;;;;;;772142;177;1014440;-63
2022/02/04 16:38:57;;;;;;;21.07;14.40;;;;;;;;;;781424;177;918450;-64
2022/02/04 16:41:29;;;;;;;22.33;12.00;;;;;;;;;;773827;180;921733;-64
2022/02/04 16:43:48;;;;;;;25.63;12.60;;;;;;;;;;773560;180;919821;-64
2022/02/04 16:46:14;;;;;;;22.47;12.63;;;;;;;;;;772700;179;920720;-64
2022/02/04 16:48:41;;;;;;;18.60;12.93;;;;;;;;;;777519;180;926694;-64
2022/02/04 16:51:06;;;;;;;18.20;11.30;;;;;;;;;;773656;180;917132;-64
2022/02/04 16:53:33;;;;;;;29.87;12.97;;;;;;;;;;767550;180;918829;-63
2022/02/04 16:55:59;;;;;;;20.90;12.33;;;;;;;;;;767993;181;917068;-63
2022/02/04 16:58:25;;;;;;;22.30;12.50;;;;;;;;;;772309;180;925094;-64
2022/02/04 17:00:51;;;;;;;20.93;11.40;;;;;;;;;;771104;180;1016495;-64
2022/02/04 17:03:16;;;;;;;18.63;12.20;;;;;;;;;;776628;180;918202;-64
2022/02/04 17:05:56;;;;;;;22.67;13.43;;;;;;;;;;773118;180;918655;-64
2022/02/04 17:08:32;;;;;;;26.33;15.47;;;;;;;;;;771533;178;929203;-65
2022/02/04 17:10:50;;;;;;;42.00;20.70;;;;;;;;;;762656;181;918802;-65
2022/02/04 17:13:13;;;;;;;45.55;22.40;;;;;;;;;;767987;177;919082;-64
2022/02/04 17:15:39;;;;;;;66.77;28.77;;;;;;;;;;768423;178;912801;-64
2022/02/04 17:18:05;;;;;;;43.50;22.90;;;;;;;;;;772476;179;923994;-64
2022/02/04 17:20:31;;;;;;;52.33;23.65;;;;;;;;;;772372;179;919665;-63
2022/02/04 17:22:57;;;;;;;31.73;16.23;;;;;;;;;;777358;180;919653;-63
2022/02/04 17:25:27;;;;;;;22.70;11.33;;;;;;;;;;772762;177;918564;-64
2022/02/04 17:27:48;;;;;;;20.77;12.37;;;;;;;;;;768805;180;1010141;-63
2022/02/04 17:30:14;;;;;;;20.70;12.90;;;;;;;;;;776335;178;917983;-62
2022/02/04 17:32:40;;;;;;;23.07;12.43;;;;;;;;;;772911;180;917085;-63
2022/02/04 17:35:07;;;;;;;27.70;12.97;;;;;;;;;;772631;181;919968;-63
2022/02/04 17:37:34;;;;;;;17.87;11.77;;;;;;;;;;780674;177;914054;-63
2022/02/04 17:40:03;;;;;;;25.90;11.93;;;;;;;;;;759977;182;918064;-63
2022/02/04 17:42:26;;;;;;;19.23;11.60;;;;;;;;;;765799;178;917641;-64
2022/02/04 17:44:51;;;;;;;19.47;12.00;;;;;;;;;;778083;179;919280;-63
2022/02/04 17:47:17;;;;;;;26.60;11.77;;;;;;;;;;782426;180;634067;-64
2022/02/04 17:49:53;;;;;;;19.43;11.03;;;;;;;;;;776697;178;1022806;-63
2022/02/04 17:52:20;;;;;;;19.93;11.93;;;;;;;;;;774294;179;919302;-63
2022/02/04 17:54:53;;;;;;;16.37;11.12;;;;;;;;;;775143;180;918392;-63
2022/02/04 17:57:15;;;;;;;17.60;11.43;;;;;;;;;;777717;179;920124;-63
2022/02/04 18:00:03;;;;;;;23.33;11.10;;;;;;;;;;770979;177;918700;-63
2022/02/04 18:02:09;;;;;;;17.40;11.30;;;;;;;;;;767913;180;919848;-64
2022/02/04 18:07:13;;;;;;;18.50;11.07;;;;;;;;;;766946;182;920023;-64
2022/02/04 18:09:37;;;;;;;22.77;12.40;;;;;;;;;;767314;180;919090;-64
2022/02/04 18:12:02;;;;;;;27.60;12.50;;;;;;;;;;764063;179;918326;-64
2022/02/04 18:14:28;;;;;;;16.67;10.33;;;;;;;;;;776624;180;919552;-64
2022/02/04 18:16:54;;;;;;;16.93;10.00;;;;;;;;;;770287;178;919939;-64
2022/02/04 18:19:20;;;;;;;15.67;10.10;;;;;;;;;;767080;179;920128;-64
2022/02/04 18:21:46;;;;;;;17.37;9.80;;;;;;;;;;766916;180;919304;-64
2022/02/04 18:24:12;;;;;;;27.30;11.90;;;;;;;;;;770279;177;919327;-64
2022/02/04 18:26:37;;;;;;;29.20;11.97;;;;;;;;;;768393;177;919009;-65
2022/02/04 18:29:03;;;;;;;16.20;10.67;;;;;;;;;;766665;179;1020478;-63
2022/02/04 18:31:31;;;;;;;18.15;9.00;;;;;;;;;;773080;180;919224;-64
2022/02/04 18:33:56;;;;;;;16.63;11.20;;;;;;;;;;778942;180;632631;-65
2022/02/04 18:36:21;;;;;;;14.90;10.20;;;;;;;;;;779309;178;632959;-65
2022/02/04 18:38:51;;;;;;;18.87;10.97;;;;;;;;;;783308;180;629211;-64
2022/02/04 18:43:56;;;;;;;21.33;11.57;;;;;;;;;;777745;180;636769;-65
2022/02/04 18:48:52;;;;;;;24.33;11.23;;;;;;;;;;770203;180;631010;-65
2022/02/04 18:54:11;;;;;;;21.87;11.63;;;;;;;;;;768981;179;623757;-64
2022/02/04 18:58:54;;;;;;;23.07;13.60;;;;;;;;;;777477;180;624689;-65
2022/02/04 19:01:24;;;;;;;18.33;11.07;;;;;;;;;;767369;181;919452;-65
2022/02/04 19:03:54;;;;;;;17.43;11.40;;;;;;;;;;764329;180;918204;-64
2022/02/04 19:06:21;;;;;;;23.10;11.60;;;;;;;;;;773671;179;1021651;-63